Young Endeavour — VMGW — position and weather

sailwx.info

Track history (hours):
 
Tides and Currents Weather Stations Pressure Air Temp Water Temp Dewpoint Dewpoint Depression Visibility Wind Speed Wind Dir Waves Ship Positions

Young Endeavour (Australia)

Ship's website: http://www.youngendeavour.gov.au/

Last reported at 2018-Jun-22 08:15 UTC. Time now 2018-Jun-22 08:57 UTC.
Position S 32°56' E 151°47'.

Length 44 m; beam 7.8 m; draft 4 m.

Type: Sailing vessel. MMSI: 503071000.

Date/timePositionNaut miles runAvg speedWind from/ knotsBaromVisibWave heightAir tempDewpointWater temp
2018-Jun-22 08:15S 32°56' E 151°47'0 0.0
2018-Jun-20 23:53S 32°55' E 151°47'1 0.0
2018-Jun-20 01:35S 32°55' E 151°46'42 1.6
2018-Jun-18 22:16S 33°34' E 151°24'5 0.1
2018-Jun-16 21:10S 33°39' E 151°25'1 4.4
2018-Jun-16 20:59S 33°39' E 151°25'2 3.7
2018-Jun-16 20:30S 33°41' E 151°25'2 4.7
2018-Jun-16 20:01S 33°44' E 151°25'2 4.2
2018-Jun-16 19:30S 33°46' E 151°26'2 4.9
2018-Jun-16 19:00S 33°48' E 151°26'3 6.9
2018-Jun-16 18:30S 33°52' E 151°25'3 6.0
2018-Jun-16 18:01S 33°54' E 151°24'3 5.8
2018-Jun-16 17:31S 33°57' E 151°23'3 6.1
2018-Jun-16 17:00S 33°60' E 151°22'3 6.2
2018-Jun-16 16:30S 34°03' E 151°21'  
2018-Jun-12 12:35S 34°12' E 151°28'1 6.8
2018-Jun-12 12:30S 34°12' E 151°28'3 5.5
2018-Jun-12 12:00S 34°09' E 151°28'3 5.6
2018-Jun-12 11:31S 34°06' E 151°29'3 5.2
2018-Jun-12 11:00S 34°04' E 151°30'1 2.9
2018-Jun-12 10:30S 34°03' E 151°30'2 3.9
2018-Jun-12 10:01S 34°01' E 151°28'2 4.3
2018-Jun-12 09:30S 33°60' E 151°26'2 4.5
2018-Jun-12 09:01S 33°58' E 151°24'2 4.7
2018-Jun-12 08:31S 33°56' E 151°22'  
Track history (hours):
 
Tides and Currents Weather Stations Pressure Air Temp Water Temp Dewpoint Dewpoint Depression Visibility Wind Speed Wind Dir Waves Ship Positions

Young Endeavour (Australia)

Ship's website: http://www.youngendeavour.gov.au/

Last reported at 2018-Jun-22 08:15 UTC. Time now 2018-Jun-22 08:57 UTC.
Position S 32°56' E 151°47'.

Length 44 m; beam 7.8 m; draft 4 m.

Type: Sailing vessel. MMSI: 503071000.

Date/timePositionNaut miles runAvg speedWind from/ knotsBaromVisibWave heightAir tempDewpointWater temp
2018-Jun-22 08:15S 32°56' E 151°47'0 0.0
2018-Jun-20 23:53S 32°55' E 151°47'1 0.0
2018-Jun-20 01:35S 32°55' E 151°46'42 1.6
2018-Jun-18 22:16S 33°34' E 151°24'5 0.1
2018-Jun-16 21:10S 33°39' E 151°25'1 4.4
2018-Jun-16 20:59S 33°39' E 151°25'2 3.7
2018-Jun-16 20:30S 33°41' E 151°25'2 4.7
2018-Jun-16 20:01S 33°44' E 151°25'2 4.2
2018-Jun-16 19:30S 33°46' E 151°26'2 4.9
2018-Jun-16 19:00S 33°48' E 151°26'3 6.9
2018-Jun-16 18:30S 33°52' E 151°25'3 6.0
2018-Jun-16 18:01S 33°54' E 151°24'3 5.8
2018-Jun-16 17:31S 33°57' E 151°23'3 6.1
2018-Jun-16 17:00S 33°60' E 151°22'3 6.2
2018-Jun-16 16:30S 34°03' E 151°21'  
2018-Jun-12 12:35S 34°12' E 151°28'1 6.8
2018-Jun-12 12:30S 34°12' E 151°28'3 5.5
2018-Jun-12 12:00S 34°09' E 151°28'3 5.6
2018-Jun-12 11:31S 34°06' E 151°29'3 5.2
2018-Jun-12 11:00S 34°04' E 151°30'1 2.9
2018-Jun-12 10:30S 34°03' E 151°30'2 3.9
2018-Jun-12 10:01S 34°01' E 151°28'2 4.3
2018-Jun-12 09:30S 33°60' E 151°26'2 4.5
2018-Jun-12 09:01S 33°58' E 151°24'2 4.7
2018-Jun-12 08:31S 33°56' E 151°22'  

Dump ship's entire track history